Time;durP1;ratioP1;P1;durP2;ratioP2;P2;SDS_P1;SDS_P2;PMS_P1;PMS_P2;Temp;Humidity;BMP_temperature;BMP_pressure;BME280_temperature;BME280_humidity;BME280_pressure;Samples;Min_cycle;Max_cycle;Signal;HPM_P1;HPM_P2
2021/04/17 00:00:00;;;;;;;;;;;22.20;40.00;;;;;;5051320;28;19908;-76
2021/04/17 00:02:26;;;;;;;;;;;22.20;40.60;;;;;;5043178;28;19972;-76
2021/04/17 00:04:52;;;;;;;;;;;22.40;39.10;;;;;;5055892;28;20206;-76
2021/04/17 00:07:18;;;;;;;;;;;22.10;39.80;;;;;;5053187;28;19908;-77
2021/04/17 00:09:44;;;;;;;;;;;22.30;39.60;;;;;;5054076;28;19908;-77
2021/04/17 00:12:13;;;;;;;;;;;22.20;39.90;;;;;;5046602;28;19916;-75
2021/04/17 00:14:39;;;;;;;;;;;22.10;39.80;;;;;;5049755;28;19927;-75
2021/04/17 00:17:07;;;;;;;;;;;21.90;39.90;;;;;;5050298;28;19916;-78
2021/04/17 00:19:34;;;;;;;;;;;21.70;40.50;;;;;;5048199;28;20011;-76
2021/04/17 00:22:00;;;;;;;;;;;21.60;40.20;;;;;;5052018;28;19908;-75
2021/04/17 00:24:26;;;;;;;;;;;21.40;40.80;;;;;;5046575;28;19994;-78
2021/04/17 00:26:52;;;;;;;;;;;21.40;40.50;;;;;;5035295;28;19916;-77
2021/04/17 00:29:18;;;;;;;;;;;21.20;40.90;;;;;;5040181;28;20009;-77
2021/04/17 00:31:44;;;;;;;;;;;21.10;40.70;;;;;;5046403;28;20334;-77
2021/04/17 00:34:10;;;;;;;;;;;20.90;41.20;;;;;;5032580;28;19913;-76
2021/04/17 00:36:36;;;;;;;;;;;20.90;41.10;;;;;;5042248;28;19932;-78
2021/04/17 00:39:06;;;;;;;;;;;20.70;41.50;;;;;;5047574;28;19908;-75
2021/04/17 00:41:33;;;;;;;;;;;20.70;41.60;;;;;;5053107;28;19909;-77
2021/04/17 00:43:59;;;;;;;;;;;20.70;41.50;;;;;;5055026;28;20327;-77
2021/04/17 00:46:25;;;;;;;;;;;20.50;41.90;;;;;;5030899;28;19913;-77
2021/04/17 00:48:51;;;;;;;;;;;20.30;42.30;;;;;;5047937;28;20208;-77
2021/04/17 00:51:17;;;;;;;;;;;20.20;42.40;;;;;;5055829;28;20261;-77
2021/04/17 00:53:44;;;;;;;;;;;20.10;42.50;;;;;;5037434;28;19909;-77
2021/04/17 00:56:10;;;;;;;;;;;19.90;43.00;;;;;;5047099;28;19916;-77
2021/04/17 00:58:37;;;;;;;;;;;19.80;43.30;;;;;;5048753;28;20245;-75
2021/04/17 01:01:05;;;;;;;;;;;19.70;43.40;;;;;;5050479;28;19928;-75
2021/04/17 01:03:36;;;;;;;;;;;19.70;43.50;;;;;;5045579;28;19917;-76
2021/04/17 01:06:05;;;;;;;;;;;19.60;43.60;;;;;;5054746;28;19913;-77
2021/04/17 01:08:34;;;;;;;;;;;19.40;43.90;;;;;;5055761;28;19916;-76
2021/04/17 01:11:02;;;;;;;;;;;19.30;44.20;;;;;;5058636;28;19909;-76
2021/04/17 01:13:28;;;;;;;;;;;19.20;44.30;;;;;;5059163;28;19909;-76
2021/04/17 01:15:55;;;;;;;;;;;19.00;44.60;;;;;;5077291;28;19916;-77
2021/04/17 01:18:23;;;;;;;;;;;18.80;45.20;;;;;;5044202;28;19913;-76
2021/04/17 01:20:56;;;;;;;;;;;18.70;44.90;;;;;;5056012;28;19915;-77
2021/04/17 01:23:22;;;;;;;;;;;18.60;45.20;;;;;;5055518;28;19940;-76
2021/04/17 01:25:55;;;;;;;;;;;18.50;45.60;;;;;;5055307;28;20381;-77
2021/04/17 01:28:23;;;;;;;;;;;18.40;46.00;;;;;;5050956;28;19909;-77
2021/04/17 01:30:50;;;;;;;;;;;18.20;46.40;;;;;;5055459;28;20743;-78
2021/04/17 01:33:17;;;;;;;;;;;18.00;46.90;;;;;;5055057;28;19982;-76
2021/04/17 01:35:44;;;;;;;;;;;17.70;47.40;;;;;;5055338;28;19924;-76
2021/04/17 01:38:14;;;;;;;;;;;17.40;47.90;;;;;;5055492;28;19909;-77
2021/04/17 01:40:42;;;;;;;;;;;17.30;47.40;;;;;;5052026;28;19920;-78
2021/04/17 01:43:09;;;;;;;;;;;17.20;48.50;;;;;;5047444;28;19939;-77
2021/04/17 01:45:35;;;;;;;;;;;17.10;48.90;;;;;;5051120;28;20276;-76
2021/04/17 01:48:02;;;;;;;;;;;16.90;48.80;;;;;;5053904;28;19908;-77
2021/04/17 01:50:30;;;;;;;;;;;16.90;48.50;;;;;;5055979;28;19947;-78
2021/04/17 01:52:57;;;;;;;;;;;16.90;49.50;;;;;;5054163;28;19909;-78
2021/04/17 01:55:24;;;;;;;;;;;16.90;49.60;;;;;;5043383;28;19962;-78
2021/04/17 01:57:50;;;;;;;;;;;16.80;49.90;;;;;;5055161;28;20334;-77
2021/04/17 02:00:17;;;;;;;;;;;16.60;49.30;;;;;;5053205;28;19924;-77
2021/04/17 02:02:43;;;;;;;;;;;16.50;49.40;;;;;;5070910;28;19908;-76
2021/04/17 02:05:09;;;;;;;;;;;16.50;49.70;;;;;;5058841;28;19920;-76
2021/04/17 02:07:35;;;;;;;;;;;16.50;50.60;;;;;;5055583;28;19991;-76
2021/04/17 02:10:02;;;;;;;;;;;16.10;50.80;;;;;;5054517;28;19915;-78
2021/04/17 02:12:28;;;;;;;;;;;16.00;51.40;;;;;;5054028;28;20322;-78
2021/04/17 02:14:54;;;;;;;;;;;15.90;51.70;;;;;;5053941;28;19908;-78
2021/04/17 02:17:30;;;;;;;;;;;15.80;50.80;;;;;;5053782;28;19912;-78
2021/04/17 02:19:59;;;;;;;;;;;15.80;52.60;;;;;;5051290;28;19923;-78
2021/04/17 02:22:26;;;;;;;;;;;15.60;51.90;;;;;;5054698;28;19934;-79
2021/04/17 02:24:52;;;;;;;;;;;15.60;53.00;;;;;;5055168;28;19912;-78
2021/04/17 02:27:19;;;;;;;;;;;15.40;51.60;;;;;;5048475;28;19916;-77
2021/04/17 02:29:52;;;;;;;;;;;15.00;52.30;;;;;;5034249;28;19920;-77
2021/04/17 02:32:18;;;;;;;;;;;15.10;52.10;;;;;;5053600;28;20290;-78
2021/04/17 02:34:44;;;;;;;;;;;15.10;52.50;;;;;;5034370;28;19992;-79
2021/04/17 02:37:11;;;;;;;;;;;14.90;52.60;;;;;;5053957;28;20031;-78
2021/04/17 02:39:37;;;;;;;;;;;15.00;53.20;;;;;;5053675;28;20260;-79
2021/04/17 02:42:03;;;;;;;;;;;14.90;52.30;;;;;;5053268;28;19912;-78
2021/04/17 02:44:29;;;;;;;;;;;14.90;52.90;;;;;;5055354;28;19968;-79
2021/04/17 02:46:55;;;;;;;;;;;14.80;54.00;;;;;;5053683;28;19919;-78
2021/04/17 02:49:21;;;;;;;;;;;14.70;53.00;;;;;;5053256;28;19908;-77
2021/04/17 02:51:47;;;;;;;;;;;14.60;53.30;;;;;;5045888;28;19916;-76
2021/04/17 02:54:13;;;;;;;;;;;14.50;53.40;;;;;;5054045;28;19915;-78
2021/04/17 02:56:39;;;;;;;;;;;14.50;54.80;;;;;;5034977;28;19916;-78
2021/04/17 02:59:05;;;;;;;;;;;14.50;54.70;;;;;;5052593;28;19935;-77
2021/04/17 03:01:32;;;;;;;;;;;14.40;54.30;;;;;;5041201;28;19909;-77
2021/04/17 03:03:58;;;;;;;;;;;14.30;54.10;;;;;;5053779;28;20284;-77
2021/04/17 03:06:24;;;;;;;;;;;14.30;54.20;;;;;;5068250;28;20061;-77
2021/04/17 03:08:50;;;;;;;;;;;14.20;54.90;;;;;;5075434;28;19930;-77
2021/04/17 03:11:16;;;;;;;;;;;14.10;54.00;;;;;;5061669;28;19920;-78
2021/04/17 03:13:42;;;;;;;;;;;14.20;56.30;;;;;;5054599;28;20333;-77
2021/04/17 03:16:08;;;;;;;;;;;14.20;55.40;;;;;;5052899;28;19909;-77
2021/04/17 03:18:34;;;;;;;;;;;13.90;56.10;;;;;;5052111;28;19909;-78
2021/04/17 03:21:00;;;;;;;;;;;13.90;55.40;;;;;;5051289;28;19927;-77
2021/04/17 03:23:26;;;;;;;;;;;13.90;56.50;;;;;;5044065;28;19966;-78
2021/04/17 03:25:52;;;;;;;;;;;13.80;56.10;;;;;;5053391;28;19917;-77
2021/04/17 03:28:18;;;;;;;;;;;13.80;56.80;;;;;;5056885;28;19971;-76
2021/04/17 03:30:44;;;;;;;;;;;13.90;56.00;;;;;;5039273;28;20014;-76
2021/04/17 03:33:11;;;;;;;;;;;13.80;56.40;;;;;;5054989;28;20069;-77
2021/04/17 03:35:37;;;;;;;;;;;13.80;56.30;;;;;;5054368;28;19920;-77
2021/04/17 03:38:03;;;;;;;;;;;13.70;56.50;;;;;;5048760;28;19982;-77
2021/04/17 03:40:31;;;;;;;;;;;13.60;56.90;;;;;;5056540;28;20389;-77
2021/04/17 03:42:57;;;;;;;;;;;13.80;57.20;;;;;;5034727;28;20058;-78
2021/04/17 03:45:23;;;;;;;;;;;13.90;58.20;;;;;;5057378;28;19970;-77
2021/04/17 03:47:49;;;;;;;;;;;13.90;58.30;;;;;;5039551;28;20258;-77
2021/04/17 03:50:16;;;;;;;;;;;13.80;57.50;;;;;;5052273;28;20339;-78
2021/04/17 03:52:42;;;;;;;;;;;13.60;58.90;;;;;;5048007;28;19920;-77
2021/04/17 03:55:10;;;;;;;;;;;13.70;58.10;;;;;;5047033;28;19988;-77
2021/04/17 03:57:37;;;;;;;;;;;13.60;57.60;;;;;;5051785;28;19913;-77
2021/04/17 04:00:04;;;;;;;;;;;13.60;58.70;;;;;;5057728;28;19935;-77
2021/04/17 04:02:30;;;;;;;;;;;13.60;58.60;;;;;;5054982;28;19920;-78
2021/04/17 04:04:56;;;;;;;;;;;13.60;59.30;;;;;;5038776;28;20022;-77
2021/04/17 04:07:23;;;;;;;;;;;13.60;58.10;;;;;;5057343;28;20259;-77
2021/04/17 04:09:49;;;;;;;;;;;13.50;58.50;;;;;;5038988;28;19920;-77
2021/04/17 04:12:15;;;;;;;;;;;13.30;57.70;;;;;;5036154;28;19909;-76
2021/04/17 04:14:41;;;;;;;;;;;13.40;58.10;;;;;;5048431;28;19932;-77
2021/04/17 04:17:07;;;;;;;;;;;13.60;58.50;;;;;;5052137;28;19909;-77
2021/04/17 04:19:33;;;;;;;;;;;13.50;58.40;;;;;;5037410;28;19987;-76
2021/04/17 04:21:59;;;;;;;;;;;13.40;58.60;;;;;;5037652;28;19909;-77
2021/04/17 04:24:25;;;;;;;;;;;13.40;58.90;;;;;;5038847;28;19908;-77
2021/04/17 04:26:51;;;;;;;;;;;13.50;59.00;;;;;;5057762;28;19913;-76
2021/04/17 04:29:17;;;;;;;;;;;13.40;58.80;;;;;;5041004;28;19991;-76
2021/04/17 04:31:43;;;;;;;;;;;13.50;59.60;;;;;;5026235;28;19909;-76
2021/04/17 04:34:09;;;;;;;;;;;13.40;58.30;;;;;;5048214;28;19909;-75
2021/04/17 04:36:35;;;;;;;;;;;13.20;58.90;;;;;;5019405;28;19924;-77
2021/04/17 04:39:02;;;;;;;;;;;13.20;58.80;;;;;;5047385;28;20366;-76
2021/04/17 04:41:28;;;;;;;;;;;13.20;59.90;;;;;;5031810;28;19908;-76
2021/04/17 04:43:54;;;;;;;;;;;13.20;57.80;;;;;;5037263;28;19974;-75
2021/04/17 04:46:20;;;;;;;;;;;13.00;58.30;;;;;;5034280;28;19913;-74
2021/04/17 04:48:46;;;;;;;;;;;13.00;59.50;;;;;;5040944;28;19909;-75
2021/04/17 04:51:12;;;;;;;;;;;12.90;58.80;;;;;;5035524;28;20224;-76
2021/04/17 04:53:38;;;;;;;;;;;13.10;58.70;;;;;;5057845;28;20239;-75
2021/04/17 04:56:05;;;;;;;;;;;13.10;57.80;;;;;;5056222;28;19972;-75
2021/04/17 04:58:31;;;;;;;;;;;13.10;57.50;;;;;;5048531;28;19916;-75
2021/04/17 05:00:57;;;;;;;;;;;13.20;58.20;;;;;;5057312;28;19976;-76
2021/04/17 05:03:23;;;;;;;;;;;13.20;59.20;;;;;;5054727;28;19901;-76
2021/04/17 05:05:49;;;;;;;;;;;13.10;59.00;;;;;;5064263;28;19916;-76
2021/04/17 05:08:16;;;;;;;;;;;13.10;58.30;;;;;;5055374;28;19999;-76
2021/04/17 05:10:42;;;;;;;;;;;13.20;58.40;;;;;;5043910;28;19984;-76
2021/04/17 05:13:08;;;;;;;;;;;13.40;59.10;;;;;;5051094;28;19959;-77
2021/04/17 05:15:34;;;;;;;;;;;13.30;58.60;;;;;;5055100;28;19908;-76
2021/04/17 05:18:00;;;;;;;;;;;13.30;59.50;;;;;;5035564;28;19916;-76
2021/04/17 05:20:26;;;;;;;;;;;13.30;60.40;;;;;;5055841;28;19914;-76
2021/04/17 05:22:52;;;;;;;;;;;13.10;59.70;;;;;;5051074;28;19908;-77
2021/04/17 05:25:18;;;;;;;;;;;13.00;60.00;;;;;;5057559;28;20396;-76
2021/04/17 05:27:44;;;;;;;;;;;13.20;60.70;;;;;;5054244;28;19971;-76
2021/04/17 05:30:10;;;;;;;;;;;13.20;60.00;;;;;;5036884;28;20241;-76
2021/04/17 05:32:38;;;;;;;;;;;13.20;60.10;;;;;;5042482;28;19912;-76
2021/04/17 05:35:05;;;;;;;;;;;13.10;60.00;;;;;;5050732;28;20039;-76
2021/04/17 05:37:31;;;;;;;;;;;13.10;60.60;;;;;;5052149;28;19909;-76
2021/04/17 05:39:58;;;;;;;;;;;13.10;60.80;;;;;;5036358;28;20008;-76
2021/04/17 05:42:24;;;;;;;;;;;13.00;59.90;;;;;;5047734;28;19971;-76
2021/04/17 05:44:50;;;;;;;;;;;13.10;61.40;;;;;;5052134;28;19955;-76
2021/04/17 05:47:16;;;;;;;;;;;13.10;60.30;;;;;;5051697;28;19909;-76
2021/04/17 05:49:42;;;;;;;;;;;13.10;60.60;;;;;;5055425;28;19908;-76
2021/04/17 05:52:08;;;;;;;;;;;13.00;60.50;;;;;;5056082;28;20073;-76
2021/04/17 05:54:34;;;;;;;;;;;12.90;59.70;;;;;;5056851;28;19915;-76
2021/04/17 05:57:00;;;;;;;;;;;12.80;59.70;;;;;;5028170;28;19916;-76
2021/04/17 05:59:26;;;;;;;;;;;12.80;60.00;;;;;;5056525;28;19919;-76
2021/04/17 06:01:52;;;;;;;;;;;12.60;60.50;;;;;;5031422;28;19923;-76
2021/04/17 06:04:18;;;;;;;;;;;12.70;59.90;;;;;;5032801;28;20009;-76
2021/04/17 06:06:44;;;;;;;;;;;12.70;60.40;;;;;;5051660;28;20078;-76
2021/04/17 06:09:10;;;;;;;;;;;12.70;59.70;;;;;;5054592;28;19948;-76
2021/04/17 06:11:36;;;;;;;;;;;12.60;59.80;;;;;;5036990;28;19916;-76
2021/04/17 06:14:02;;;;;;;;;;;12.70;59.50;;;;;;5036618;28;19927;-76
2021/04/17 06:16:28;;;;;;;;;;;12.70;59.70;;;;;;5053317;28;19908;-76
2021/04/17 06:18:54;;;;;;;;;;;12.70;59.50;;;;;;5049901;28;19909;-76
2021/04/17 06:21:20;;;;;;;;;;;12.80;60.40;;;;;;5045823;28;20316;-76
2021/04/17 06:23:46;;;;;;;;;;;12.90;60.20;;;;;;5023447;28;20259;-76
2021/04/17 06:26:12;;;;;;;;;;;13.00;60.90;;;;;;5044865;28;19913;-76
2021/04/17 06:28:38;;;;;;;;;;;12.90;60.70;;;;;;5046027;28;19909;-76
2021/04/17 06:31:04;;;;;;;;;;;13.00;61.90;;;;;;5045653;28;19962;-76
2021/04/17 06:33:30;;;;;;;;;;;12.90;61.30;;;;;;5042494;28;19909;-77
2021/04/17 06:35:58;;;;;;;;;;;12.90;61.20;;;;;;5045867;28;19917;-74
2021/04/17 06:38:24;;;;;;;;;;;13.00;61.80;;;;;;5051059;28;19919;-75
2021/04/17 06:40:51;;;;;;;;;;;13.00;62.40;;;;;;5045165;28;19908;-77
2021/04/17 06:43:21;;;;;;;;;;;13.10;61.70;;;;;;5052394;28;20003;-77
2021/04/17 06:45:47;;;;;;;;;;;12.90;61.50;;;;;;5054147;28;20250;-77
2021/04/17 06:48:15;;;;;;;;;;;12.90;62.60;;;;;;5045483;28;19962;-77
2021/04/17 06:50:42;;;;;;;;;;;12.80;61.40;;;;;;5036644;28;19909;-75
2021/04/17 06:53:09;;;;;;;;;;;12.90;61.80;;;;;;5055896;28;19991;-75
2021/04/17 06:55:36;;;;;;;;;;;12.80;62.60;;;;;;5061950;28;20289;-75
2021/04/17 06:58:03;;;;;;;;;;;12.80;61.80;;;;;;5064942;28;19908;-75
2021/04/17 07:00:29;;;;;;;;;;;12.90;62.60;;;;;;5053683;28;19924;-76
2021/04/17 07:02:55;;;;;;;;;;;12.80;62.50;;;;;;5053486;28;19912;-76
2021/04/17 07:05:21;;;;;;;;;;;12.90;62.90;;;;;;5049921;28;19912;-77
2021/04/17 07:07:47;;;;;;;;;;;12.80;62.40;;;;;;5057435;28;19955;-76
2021/04/17 07:10:15;;;;;;;;;;;12.80;61.60;;;;;;5057727;28;19909;-77
2021/04/17 07:12:44;;;;;;;;;;;12.80;61.80;;;;;;5041579;28;19917;-77
2021/04/17 07:15:11;;;;;;;;;;;12.70;62.40;;;;;;5057342;28;19996;-76
2021/04/17 07:17:37;;;;;;;;;;;12.60;61.80;;;;;;5048383;28;19959;-77
2021/04/17 07:20:04;;;;;;;;;;;12.70;62.90;;;;;;5058552;28;19936;-77
2021/04/17 07:22:32;;;;;;;;;;;12.90;62.40;;;;;;5033385;28;19909;-76
2021/04/17 07:25:04;;;;;;;;;;;12.70;61.70;;;;;;5038539;28;19927;-77
2021/04/17 07:27:47;;;;;;;;;;;12.70;63.30;;;;;;5021304;28;20019;-77
2021/04/17 07:30:16;;;;;;;;;;;12.60;62.00;;;;;;5039568;28;19959;-76
2021/04/17 07:32:47;;;;;;;;;;;12.60;62.90;;;;;;5044567;28;20251;-77
2021/04/17 07:35:15;;;;;;;;;;;12.60;62.40;;;;;;5047033;28;19909;-77
2021/04/17 07:37:42;;;;;;;;;;;12.40;62.60;;;;;;5051069;28;19916;-76
2021/04/17 07:40:19;;;;;;;;;;;12.70;63.20;;;;;;5046940;28;19916;-77
2021/04/17 07:42:50;;;;;;;;;;;12.60;63.00;;;;;;5032085;28;19924;-77
2021/04/17 07:45:25;;;;;;;;;;;12.50;62.30;;;;;;5044246;28;19920;-74
2021/04/17 07:47:53;;;;;;;;;;;12.40;62.40;;;;;;5045900;28;19916;-77
2021/04/17 07:50:19;;;;;;;;;;;12.30;62.80;;;;;;5042305;28;19913;-76
2021/04/17 07:52:46;;;;;;;;;;;12.30;62.00;;;;;;5040178;28;20044;-77
2021/04/17 07:55:17;;;;;;;;;;;12.40;62.40;;;;;;5042987;28;19909;-76
2021/04/17 07:57:44;;;;;;;;;;;12.40;62.30;;;;;;5056901;28;19951;-76
2021/04/17 08:00:12;;;;;;;;;;;12.20;64.20;;;;;;5056788;28;19916;-76
2021/04/17 08:02:40;;;;;;;;;;;12.20;62.80;;;;;;5045671;28;19909;-76
2021/04/17 08:05:06;;;;;;;;;;;12.30;62.20;;;;;;5053083;28;19912;-77
2021/04/17 08:07:35;;;;;;;;;;;12.20;62.90;;;;;;5055865;28;19909;-76
2021/04/17 08:10:02;;;;;;;;;;;12.40;62.60;;;;;;5039679;28;20002;-76
2021/04/17 08:12:29;;;;;;;;;;;12.30;62.40;;;;;;5040409;28;19913;-77
2021/04/17 08:14:55;;;;;;;;;;;12.30;62.00;;;;;;5056629;28;19913;-77
2021/04/17 08:17:21;;;;;;;;;;;12.30;62.80;;;;;;5056419;28;19913;-76
2021/04/17 08:19:48;;;;;;;;;;;12.40;62.20;;;;;;5056853;28;19916;-76
2021/04/17 08:22:15;;;;;;;;;;;12.30;62.20;;;;;;5056775;28;19952;-76
2021/04/17 08:24:41;;;;;;;;;;;12.40;63.30;;;;;;5057514;28;19917;-76
2021/04/17 08:27:07;;;;;;;;;;;12.40;63.70;;;;;;5043730;28;20317;-77
2021/04/17 08:29:55;;;;;;;;;;;12.30;63.10;;;;;;5052107;28;19909;-77
2021/04/17 08:32:28;;;;;;;;;;;12.30;63.40;;;;;;5051714;28;19957;-75
2021/04/17 08:35:03;;;;;;;;;;;12.30;63.70;;;;;;5041900;28;19981;-76
2021/04/17 08:37:31;;;;;;;;;;;12.30;63.00;;;;;;5050493;28;20382;-77
2021/04/17 08:39:57;;;;;;;;;;;12.30;62.80;;;;;;5056817;28;19971;-76
2021/04/17 08:42:47;;;;;;;;;;;12.20;63.00;;;;;;5048684;28;19908;-76
2021/04/17 08:45:20;;;;;;;;;;;12.20;63.00;;;;;;5042294;28;19970;-76
2021/04/17 08:47:48;;;;;;;;;;;12.10;63.30;;;;;;5050594;28;20125;-77
2021/04/17 08:50:28;;;;;;;;;;;12.10;63.80;;;;;;5040181;28;20231;-77
2021/04/17 08:53:12;;;;;;;;;;;12.10;63.40;;;;;;5066375;28;19909;-76
2021/04/17 08:55:39;;;;;;;;;;;12.10;63.00;;;;;;5076277;28;19994;-77
2021/04/17 08:58:24;;;;;;;;;;;12.10;62.60;;;;;;5069859;28;19936;-77
2021/04/17 09:00:50;;;;;;;;;;;12.10;62.50;;;;;;5054392;28;19909;-76
2021/04/17 09:03:46;;;;;;;;;;;12.10;62.80;;;;;;5055011;28;20024;-76
2021/04/17 09:06:23;;;;;;;;;;;12.10;62.80;;;;;;5038212;28;19912;-76
2021/04/17 09:09:08;;;;;;;;;;;12.20;62.20;;;;;;5038104;28;20298;-76
2021/04/17 09:11:35;;;;;;;;;;;12.20;62.70;;;;;;5054403;28;19955;-76
2021/04/17 09:14:02;;;;;;;;;;;12.10;62.80;;;;;;5052470;28;19920;-76
2021/04/17 09:16:38;;;;;;;;;;;12.10;62.90;;;;;;5055260;28;19905;-76
2021/04/17 09:19:05;;;;;;;;;;;12.10;62.80;;;;;;5037476;28;19948;-76
2021/04/17 09:21:32;;;;;;;;;;;12.00;63.70;;;;;;5055196;28;19934;-76
2021/04/17 09:23:58;;;;;;;;;;;12.20;63.50;;;;;;5053808;28;19947;-76
2021/04/17 09:26:33;;;;;;;;;;;12.10;63.30;;;;;;5054441;28;19916;-76
2021/04/17 09:29:00;;;;;;;;;;;12.20;63.50;;;;;;5055170;28;19915;-76
2021/04/17 09:31:26;;;;;;;;;;;12.10;63.30;;;;;;5048936;28;19919;-76
2021/04/17 09:33:59;;;;;;;;;;;12.00;63.70;;;;;;5055278;28;19955;-76
2021/04/17 09:36:25;;;;;;;;;;;12.10;64.40;;;;;;5054296;28;19916;-76
2021/04/17 09:38:51;;;;;;;;;;;12.10;64.00;;;;;;5050604;28;19912;-76
2021/04/17 09:41:17;;;;;;;;;;;12.10;63.90;;;;;;5044636;28;19959;-76
2021/04/17 09:43:43;;;;;;;;;;;12.00;63.30;;;;;;5051943;28;19909;-76
2021/04/17 09:46:16;;;;;;;;;;;12.10;63.90;;;;;;5050085;28;20290;-76
2021/04/17 09:48:43;;;;;;;;;;;11.90;63.40;;;;;;5052344;28;19916;-76
2021/04/17 09:51:22;;;;;;;;;;;12.00;63.30;;;;;;5054990;28;19905;-76
2021/04/17 09:53:49;;;;;;;;;;;12.00;63.50;;;;;;5053403;28;19912;-76
2021/04/17 09:56:25;;;;;;;;;;;11.90;63.50;;;;;;5054278;28;19905;-76
2021/04/17 09:58:51;;;;;;;;;;;11.80;63.40;;;;;;5054641;28;19909;-76
2021/04/17 10:01:18;;;;;;;;;;;11.90;63.50;;;;;;5053667;28;20353;-76
2021/04/17 10:03:50;;;;;;;;;;;11.80;63.80;;;;;;5051224;28;23143;-75
2021/04/17 10:06:27;;;;;;;;;;;11.80;63.50;;;;;;5051624;28;19924;-76
2021/04/17 10:08:54;;;;;;;;;;;11.80;63.70;;;;;;5054014;28;20372;-75
2021/04/17 10:11:23;;;;;;;;;;;11.80;63.70;;;;;;5045781;28;19915;-76
2021/04/17 10:13:49;;;;;;;;;;;11.80;63.70;;;;;;5038332;28;19909;-76
2021/04/17 10:16:23;;;;;;;;;;;11.80;63.60;;;;;;5053227;28;19948;-73
2021/04/17 10:18:49;;;;;;;;;;;11.70;63.40;;;;;;5054709;28;19913;-76
2021/04/17 10:21:16;;;;;;;;;;;11.70;63.60;;;;;;5052185;28;19970;-75
2021/04/17 10:23:42;;;;;;;;;;;11.70;63.60;;;;;;5052903;28;19916;-76
2021/04/17 10:26:09;;;;;;;;;;;11.70;64.20;;;;;;5052582;28;19974;-76
2021/04/17 10:28:36;;;;;;;;;;;11.70;63.70;;;;;;5053980;28;19909;-75
2021/04/17 10:31:11;;;;;;;;;;;11.70;63.50;;;;;;5055153;28;20364;-76
2021/04/17 10:33:41;;;;;;;;;;;11.70;63.40;;;;;;5053212;28;19919;-75
2021/04/17 10:36:14;;;;;;;;;;;11.70;63.20;;;;;;5048314;28;19917;-75
2021/04/17 10:38:41;;;;;;;;;;;11.70;63.30;;;;;;5050027;28;19909;-75
2021/04/17 10:41:08;;;;;;;;;;;11.70;63.70;;;;;;5053622;28;19916;-75
2021/04/17 10:43:34;;;;;;;;;;;11.60;63.60;;;;;;5054371;28;20254;-76
2021/04/17 10:46:01;;;;;;;;;;;11.70;63.70;;;;;;5055956;28;19912;-75
2021/04/17 10:48:28;;;;;;;;;;;11.70;63.70;;;;;;5043993;28;19913;-76
2021/04/17 10:51:02;;;;;;;;;;;11.70;63.80;;;;;;5064827;28;19916;-77
2021/04/17 10:53:35;;;;;;;;;;;11.70;63.70;;;;;;5064542;28;20007;-76
2021/04/17 10:56:02;;;;;;;;;;;11.70;64.40;;;;;;5053324;28;19908;-76
2021/04/17 10:58:30;;;;;;;;;;;11.80;64.10;;;;;;5046214;28;19913;-75
2021/04/17 11:00:57;;;;;;;;;;;11.80;64.00;;;;;;5035774;28;19950;-76
2021/04/17 11:03:28;;;;;;;;;;;11.80;64.50;;;;;;5053970;28;19959;-77
2021/04/17 11:05:57;;;;;;;;;;;11.70;64.20;;;;;;5053319;28;19960;-75
2021/04/17 11:08:31;;;;;;;;;;;11.80;65.20;;;;;;5047743;28;20235;-78
2021/04/17 11:11:06;;;;;;;;;;;11.70;64.60;;;;;;5033507;28;20304;-78
2021/04/17 11:13:34;;;;;;;;;;;11.70;64.50;;;;;;5055145;28;19908;-76
2021/04/17 11:16:01;;;;;;;;;;;11.70;64.20;;;;;;5054269;28;19916;-75
2021/04/17 11:18:32;;;;;;;;;;;11.70;64.60;;;;;;5037170;28;19909;-75
2021/04/17 11:21:00;;;;;;;;;;;11.70;63.80;;;;;;5052819;28;19908;-75
2021/04/17 11:23:34;;;;;;;;;;;11.70;63.60;;;;;;5052872;28;19908;-75
2021/04/17 11:26:03;;;;;;;;;;;11.70;63.50;;;;;;5050039;28;19917;-76
2021/04/17 11:28:29;;;;;;;;;;;11.70;63.90;;;;;;5022580;28;19941;-75
2021/04/17 11:30:55;;;;;;;;;;;11.70;64.40;;;;;;5043334;28;19920;-76
2021/04/17 11:33:22;;;;;;;;;;;11.70;64.50;;;;;;5035653;28;19908;-76
2021/04/17 11:35:48;;;;;;;;;;;11.70;64.30;;;;;;5047066;28;20290;-75
2021/04/17 11:38:14;;;;;;;;;;;11.80;63.90;;;;;;5051984;28;20316;-75
2021/04/17 11:40:40;;;;;;;;;;;11.80;64.20;;;;;;5035721;28;19940;-76
2021/04/17 11:43:06;;;;;;;;;;;11.70;64.00;;;;;;5034785;28;19962;-75
2021/04/17 11:45:32;;;;;;;;;;;11.80;63.70;;;;;;5051935;28;19912;-75
2021/04/17 11:47:58;;;;;;;;;;;11.80;64.10;;;;;;5052869;28;19909;-76
2021/04/17 11:50:24;;;;;;;;;;;11.80;64.20;;;;;;5056628;28;19962;-76
2021/04/17 11:52:50;;;;;;;;;;;11.80;64.20;;;;;;5052810;28;19909;-75
2021/04/17 11:55:16;;;;;;;;;;;11.80;64.10;;;;;;5057185;28;20377;-75
2021/04/17 11:57:42;;;;;;;;;;;11.80;64.20;;;;;;5055127;28;19909;-75
2021/04/17 12:00:09;;;;;;;;;;;11.90;64.20;;;;;;5050548;28;19908;-75
2021/04/17 12:02:35;;;;;;;;;;;11.90;63.70;;;;;;5038795;28;19908;-76
2021/04/17 12:05:01;;;;;;;;;;;11.90;64.10;;;;;;5052773;28;19913;-75
2021/04/17 12:07:27;;;;;;;;;;;12.00;63.80;;;;;;5044457;28;19913;-76
2021/04/17 12:09:53;;;;;;;;;;;12.10;64.30;;;;;;5050567;28;19912;-76
2021/04/17 12:12:19;;;;;;;;;;;12.00;64.60;;;;;;5053399;28;19909;-75
2021/04/17 12:14:45;;;;;;;;;;;12.10;64.20;;;;;;5056763;28;19966;-75
2021/04/17 12:17:12;;;;;;;;;;;12.20;64.20;;;;;;5057524;28;19999;-76
2021/04/17 12:19:38;;;;;;;;;;;12.20;63.90;;;;;;5054917;28;19909;-75
2021/04/17 12:22:04;;;;;;;;;;;12.30;63.70;;;;;;5055711;28;19916;-75
2021/04/17 12:24:30;;;;;;;;;;;12.30;64.00;;;;;;5057651;28;19905;-76
2021/04/17 12:26:56;;;;;;;;;;;12.40;63.90;;;;;;5048474;28;20001;-76
2021/04/17 12:29:22;;;;;;;;;;;12.60;64.50;;;;;;5057597;28;19909;-75
2021/04/17 12:31:48;;;;;;;;;;;12.70;64.30;;;;;;5055643;28;19917;-76
2021/04/17 12:34:14;;;;;;;;;;;12.80;63.90;;;;;;5055452;28;19909;-76
2021/04/17 12:36:41;;;;;;;;;;;12.60;63.60;;;;;;5057693;28;19913;-76
2021/04/17 12:39:07;;;;;;;;;;;12.60;63.60;;;;;;5060195;28;19913;-76
2021/04/17 12:41:33;;;;;;;;;;;12.60;63.90;;;;;;5060908;28;19909;-76
2021/04/17 12:44:00;;;;;;;;;;;12.70;64.00;;;;;;5062496;28;19916;-75
2021/04/17 12:46:26;;;;;;;;;;;12.60;64.00;;;;;;5065317;28;19901;-75
2021/04/17 12:48:52;;;;;;;;;;;12.70;63.80;;;;;;5068299;28;20250;-75
2021/04/17 12:51:18;;;;;;;;;;;12.70;64.00;;;;;;5054641;28;20469;-76
2021/04/17 12:53:44;;;;;;;;;;;12.80;64.10;;;;;;5052666;28;20338;-76
2021/04/17 12:56:10;;;;;;;;;;;12.70;64.10;;;;;;5054481;28;19917;-75
2021/04/17 12:58:40;;;;;;;;;;;12.70;65.40;;;;;;5055050;28;20010;-75
2021/04/17 13:01:06;;;;;;;;;;;12.80;64.10;;;;;;5053627;28;19967;-76
2021/04/17 13:03:33;;;;;;;;;;;12.70;65.00;;;;;;5054168;28;19970;-75
2021/04/17 13:05:59;;;;;;;;;;;12.40;66.10;;;;;;5054485;28;19941;-75
2021/04/17 13:08:28;;;;;;;;;;;12.40;65.80;;;;;;5047414;28;19909;-75
2021/04/17 13:10:54;;;;;;;;;;;12.20;66.90;;;;;;5038031;28;20326;-76
2021/04/17 13:13:22;;;;;;;;;;;12.30;65.80;;;;;;5057278;28;19909;-75
2021/04/17 13:15:48;;;;;;;;;;;12.40;65.10;;;;;;5055670;28;20358;-75
2021/04/17 13:18:14;;;;;;;;;;;12.40;65.00;;;;;;5055071;28;19948;-75
2021/04/17 13:20:41;;;;;;;;;;;12.50;64.50;;;;;;5049559;28;19975;-75
2021/04/17 13:23:07;;;;;;;;;;;12.60;64.70;;;;;;5051170;28;20253;-75
2021/04/17 13:25:34;;;;;;;;;;;12.80;64.60;;;;;;5054941;28;19916;-75
2021/04/17 13:28:01;;;;;;;;;;;12.60;65.50;;;;;;5054907;28;19909;-75
2021/04/17 13:30:27;;;;;;;;;;;12.70;64.30;;;;;;5055743;28;19923;-75
2021/04/17 13:32:53;;;;;;;;;;;12.70;64.20;;;;;;5036189;28;19931;-76
2021/04/17 13:35:20;;;;;;;;;;;12.70;64.10;;;;;;5040836;28;19916;-75
2021/04/17 13:37:49;;;;;;;;;;;12.70;64.60;;;;;;5051453;28;20291;-76
2021/04/17 13:40:15;;;;;;;;;;;12.70;64.40;;;;;;5051531;28;20058;-75
2021/04/17 13:42:41;;;;;;;;;;;12.70;65.00;;;;;;5054663;28;19908;-75
2021/04/17 13:45:08;;;;;;;;;;;12.80;64.80;;;;;;5055577;28;19916;-75
2021/04/17 13:47:34;;;;;;;;;;;12.80;64.90;;;;;;5035500;28;19936;-76
2021/04/17 13:50:00;;;;;;;;;;;13.00;65.10;;;;;;5055509;28;19915;-75
2021/04/17 13:52:26;;;;;;;;;;;12.60;66.50;;;;;;5052885;28;20309;-75
2021/04/17 13:54:52;;;;;;;;;;;12.70;65.60;;;;;;5036420;28;19971;-75
2021/04/17 13:57:18;;;;;;;;;;;12.80;64.70;;;;;;5053093;28;19915;-75
2021/04/17 13:59:44;;;;;;;;;;;12.80;65.00;;;;;;5037616;28;19999;-75
2021/04/17 14:02:14;;;;;;;;;;;12.60;66.90;;;;;;5043121;28;20000;-74
2021/04/17 14:04:40;;;;;;;;;;;12.80;64.90;;;;;;5054198;28;19913;-75
2021/04/17 14:07:06;;;;;;;;;;;12.90;64.60;;;;;;5047156;28;19913;-75
2021/04/17 14:09:32;;;;;;;;;;;13.00;65.00;;;;;;5054933;28;20007;-74
2021/04/17 14:11:58;;;;;;;;;;;12.80;66.00;;;;;;5053529;28;20025;-75
2021/04/17 14:14:24;;;;;;;;;;;13.10;64.40;;;;;;5051970;28;19916;-75
2021/04/17 14:16:50;;;;;;;;;;;13.10;63.90;;;;;;5048181;28;19909;-74